createdAt,value
2019-03-28T00:00:28.376Z,-893.12
2019-03-28T00:01:28.720Z,-891.13
2019-03-28T00:02:29.059Z,-892.12
2019-03-28T00:03:29.683Z,-891.90
2019-03-28T00:04:29.831Z,-890.32
2019-03-28T00:05:30.041Z,-889.48
2019-03-28T00:06:30.392Z,-888.76
2019-03-28T00:07:30.727Z,-889.82
2019-03-28T00:08:31.088Z,-891.26
2019-03-28T00:09:31.432Z,-892.93
2019-03-28T00:10:31.741Z,-887.89
2019-03-28T00:11:32.086Z,-892.51
2019-03-28T00:12:32.469Z,-890.30
2019-03-28T00:13:32.734Z,-896.77
2019-03-28T00:14:33.096Z,-895.54
2019-03-28T00:15:33.415Z,-891.79
2019-03-28T00:16:33.755Z,-892.36
2019-03-28T00:17:34.101Z,-892.44
2019-03-28T00:18:34.447Z,-893.25
2019-03-28T00:19:34.770Z,-890.87
2019-03-28T00:20:35.391Z,-890.00
2019-03-28T00:21:35.514Z,-895.40
2019-03-28T00:22:35.795Z,-891.05
2019-03-28T00:23:36.285Z,-893.97
2019-03-28T00:24:36.466Z,-894.99
2019-03-28T00:25:36.792Z,-898.17
2019-03-28T00:26:37.132Z,-896.00
2019-03-28T00:27:37.487Z,-893.39
2019-03-28T00:28:37.836Z,-900.17
2019-03-28T00:29:38.248Z,-900.10
2019-03-28T00:30:38.480Z,-903.72
2019-03-28T00:31:38.812Z,-895.02
2019-03-28T00:32:39.165Z,-892.03
2019-03-28T00:33:39.508Z,-891.53
2019-03-28T00:34:39.827Z,-895.21
2019-03-28T00:35:40.168Z,-895.95
2019-03-28T00:36:40.501Z,-903.56
2019-03-28T00:37:40.950Z,-902.07
2019-03-28T00:38:41.458Z,-899.54
2019-03-28T00:39:41.526Z,-898.96
2019-03-28T00:40:41.833Z,-898.08
2019-03-28T00:41:42.171Z,-895.39
2019-03-28T00:42:42.526Z,-898.95
2019-03-28T00:43:42.876Z,-900.45
2019-03-28T00:44:43.198Z,-900.50
2019-03-28T00:45:44.487Z,-899.04
2019-03-28T00:46:43.837Z,-900.16
2019-03-28T00:47:44.192Z,-903.64
2019-03-28T00:48:44.519Z,-899.10
2019-03-28T00:49:44.849Z,-892.58
2019-03-28T00:50:45.164Z,-898.57
2019-03-28T00:51:45.507Z,-899.87
2019-03-28T00:52:45.878Z,-903.25
2019-03-28T00:53:46.246Z,-897.61
2019-03-28T00:54:46.555Z,-903.93
2019-03-28T00:55:46.865Z,-898.41
2019-03-28T00:56:47.694Z,-901.27
2019-03-28T00:57:47.577Z,-903.51
2019-03-28T00:58:47.935Z,-903.28
2019-03-28T00:59:48.233Z,-902.27
2019-03-28T01:00:48.586Z,-899.19
2019-03-28T01:01:48.931Z,-906.81
2019-03-28T01:02:49.381Z,-904.36
2019-03-28T01:03:49.888Z,-897.60
2019-03-28T01:04:49.942Z,-902.43
2019-03-28T01:05:50.297Z,-901.77
2019-03-28T01:06:50.601Z,-904.09
2019-03-28T01:07:50.970Z,-901.51
2019-03-28T01:08:51.310Z,-899.06
2019-03-28T01:09:51.619Z,-901.29
2019-03-28T01:10:52.084Z,-903.93
2019-03-28T01:11:52.297Z,-903.79
2019-03-28T01:12:53.098Z,-902.44
2019-03-28T01:13:53.005Z,-899.21
2019-03-28T01:14:53.320Z,-903.19
2019-03-28T01:15:53.673Z,-900.93
2019-03-28T01:16:53.980Z,-900.95
2019-03-28T01:17:55.126Z,-904.15
2019-03-28T01:18:54.765Z,-904.51
2019-03-28T01:19:55.224Z,-901.50
2019-03-28T01:20:55.350Z,-903.14
2019-03-28T01:21:55.665Z,-903.92
2019-03-28T01:22:56.273Z,-899.57
2019-03-28T01:23:56.369Z,-906.07
2019-03-28T01:24:57.792Z,-908.61
2019-03-28T01:25:57.024Z,-908.49
2019-03-28T01:26:58.760Z,-903.11
2019-03-28T01:27:57.672Z,-905.69
2019-03-28T01:28:58.011Z,-903.74
2019-03-28T01:29:58.344Z,-899.99
2019-03-28T01:30:58.700Z,-896.56
2019-03-28T01:31:59.026Z,-901.51
2019-03-28T01:32:59.366Z,-900.01
2019-03-28T01:33:59.723Z,-902.00
2019-03-28T01:35:00.053Z,-902.15
2019-03-28T01:36:00.451Z,-903.41
2019-03-28T01:37:00.702Z,-902.22
2019-03-28T01:38:01.064Z,-901.43
2019-03-28T01:39:01.495Z,-908.96
2019-03-28T01:40:01.710Z,-903.59
2019-03-28T01:41:02.064Z,-907.62
2019-03-28T01:42:02.383Z,-907.59
2019-03-28T01:43:02.741Z,-902.08
2019-03-28T01:44:03.181Z,-908.20
2019-03-28T01:45:03.404Z,-905.18
2019-03-28T01:46:03.754Z,-904.39
2019-03-28T01:47:04.077Z,-907.62
2019-03-28T01:48:04.437Z,-902.82
2019-03-28T01:49:04.774Z,-903.65
2019-03-28T01:50:05.081Z,-904.21
2019-03-28T01:51:06.129Z,-901.96
2019-03-28T01:52:05.930Z,-905.09
2019-03-28T01:53:06.090Z,-903.78
2019-03-28T01:54:06.462Z,-906.47
2019-03-28T01:55:06.753Z,-904.40
2019-03-28T01:56:07.124Z,-905.54
2019-03-28T01:57:11.104Z,-904.28
2019-03-28T01:58:07.775Z,-906.88
2019-03-28T01:59:08.161Z,-900.69
2019-03-28T02:00:08.544Z,-902.10
2019-03-28T02:01:08.786Z,-908.29
2019-03-28T02:02:09.126Z,-902.80
2019-03-28T02:03:09.465Z,-904.33
2019-03-28T02:04:09.828Z,-904.04
2019-03-28T02:05:10.146Z,-902.11
2019-03-28T02:06:10.510Z,-902.37
2019-03-28T02:07:10.817Z,-905.56
2019-03-28T02:08:11.201Z,-901.98
2019-03-28T02:09:11.865Z,-902.19
2019-03-28T02:10:11.842Z,-901.35
2019-03-28T02:11:12.192Z,-903.90
2019-03-28T02:12:12.497Z,-901.16
2019-03-28T02:13:12.851Z,-907.32
2019-03-28T02:14:13.232Z,-902.96
2019-03-28T02:15:13.522Z,-905.07
2019-03-28T02:16:13.893Z,-902.37
2019-03-28T02:17:14.300Z,-904.58
2019-03-28T02:18:14.532Z,-907.60
2019-03-28T02:19:14.902Z,-903.73
2019-03-28T02:20:15.201Z,-903.80
2019-03-28T02:21:15.558Z,-904.20
2019-03-28T02:22:15.855Z,-903.31
2019-03-28T02:23:16.209Z,-899.49
2019-03-28T02:24:16.575Z,-903.46
2019-03-28T02:25:17.300Z,-903.11
2019-03-28T02:26:17.202Z,-902.82
2019-03-28T02:27:23.869Z,-905.52
2019-03-28T02:28:18.899Z,-904.05
2019-03-28T02:29:18.292Z,-901.33
2019-03-28T02:30:18.576Z,-905.22
2019-03-28T02:31:18.931Z,-902.95
2019-03-28T02:32:19.241Z,-907.60
2019-03-28T02:33:19.641Z,-900.55
2019-03-28T02:34:19.979Z,-904.03
2019-03-28T02:35:20.247Z,-906.13
2019-03-28T02:36:20.597Z,-902.83
2019-03-28T02:37:20.920Z,-902.57
2019-03-28T02:38:21.233Z,-902.44
2019-03-28T02:39:21.709Z,-900.64
2019-03-28T02:40:21.931Z,-904.53
2019-03-28T02:41:22.337Z,-902.17
2019-03-28T02:42:22.592Z,-904.10
2019-03-28T02:43:22.936Z,-906.92
2019-03-28T02:44:23.318Z,-904.29
2019-03-28T02:45:23.708Z,-906.12
2019-03-28T02:46:23.989Z,-902.85
2019-03-28T02:47:24.284Z,-907.57
2019-03-28T02:48:24.626Z,-901.52
2019-03-28T02:49:25.280Z,-901.31
2019-03-28T02:50:25.366Z,-901.75
2019-03-28T02:51:25.644Z,-903.90
2019-03-28T02:52:25.962Z,-905.78
2019-03-28T02:53:26.300Z,-900.30
2019-03-28T02:54:26.656Z,-903.37
2019-03-28T02:55:26.969Z,-906.20
2019-03-28T02:56:27.311Z,-904.96
2019-03-28T02:57:40.106Z,-909.98
2019-03-28T02:58:29.108Z,-909.40
2019-03-28T02:59:28.772Z,-904.55
2019-03-28T03:00:28.669Z,-904.36
2019-03-28T03:01:30.286Z,-898.38
2019-03-28T03:02:29.370Z,-904.10
2019-03-28T03:03:29.702Z,-904.40
2019-03-28T03:04:30.062Z,-899.30
2019-03-28T03:05:30.374Z,-905.43
2019-03-28T03:06:30.815Z,-909.28
2019-03-28T03:07:31.054Z,-901.86
2019-03-28T03:08:31.416Z,-902.22
2019-03-28T03:09:31.750Z,-902.99
2019-03-28T03:10:32.060Z,-905.38
2019-03-28T03:11:32.393Z,-904.54
2019-03-28T03:12:32.750Z,-901.14
2019-03-28T03:13:33.084Z,-904.91
2019-03-28T03:14:33.473Z,-905.47
2019-03-28T03:15:33.758Z,-905.11
2019-03-28T03:16:34.063Z,-906.97
2019-03-28T03:17:34.419Z,-906.91
2019-03-28T03:18:34.745Z,-903.19
2019-03-28T03:19:35.107Z,-904.41
2019-03-28T03:20:35.459Z,-903.83
2019-03-28T03:21:35.994Z,-904.10
2019-03-28T03:22:36.144Z,-906.87
2019-03-28T03:23:36.501Z,-904.04
2019-03-28T03:24:36.790Z,-903.97
2019-03-28T03:25:37.414Z,-905.75
2019-03-28T03:26:37.450Z,-903.91
2019-03-28T03:27:37.782Z,-906.62
2019-03-28T03:28:38.116Z,-898.90
2019-03-28T03:29:38.476Z,-903.25
2019-03-28T03:30:38.823Z,-898.87
2019-03-28T03:31:39.228Z,-900.72
2019-03-28T03:32:39.486Z,-905.72
2019-03-28T03:33:40.024Z,-902.64
2019-03-28T03:34:40.175Z,-900.25
2019-03-28T03:35:40.509Z,-901.31
2019-03-28T03:36:40.836Z,-904.02
2019-03-28T03:37:41.164Z,-903.43
2019-03-28T03:38:41.492Z,-909.65
2019-03-28T03:39:41.997Z,-897.80
2019-03-28T03:40:42.209Z,-905.06
2019-03-28T03:41:42.505Z,-904.95
2019-03-28T03:42:42.848Z,-911.19
2019-03-28T03:43:43.168Z,-906.71
2019-03-28T03:44:43.536Z,-907.57
2019-03-28T03:45:44.039Z,-904.65
2019-03-28T03:46:44.199Z,-910.81
2019-03-28T03:47:45.710Z,-903.96
2019-03-28T03:48:44.827Z,-901.26
2019-03-28T03:49:45.211Z,-904.93
2019-03-28T03:50:45.545Z,-903.74
2019-03-28T03:51:46.514Z,-899.68
2019-03-28T03:52:46.218Z,-906.25
2019-03-28T03:53:46.528Z,-908.09
2019-03-28T03:54:46.872Z,-905.01
2019-03-28T03:55:47.259Z,-905.30
2019-03-28T03:56:47.603Z,-902.68
2019-03-28T03:57:47.940Z,-900.70
2019-03-28T03:58:48.260Z,-904.39
2019-03-28T03:59:48.583Z,-906.29
2019-03-28T04:00:48.917Z,-901.71
2019-03-28T04:01:49.281Z,-905.76
2019-03-28T04:02:49.625Z,-902.95
2019-03-28T04:03:49.974Z,-904.54
2019-03-28T04:04:50.350Z,-905.22
2019-03-28T04:05:50.634Z,-902.57
2019-03-28T04:06:50.982Z,-902.48
2019-03-28T04:07:51.326Z,-898.49
2019-03-28T04:08:51.643Z,-906.98
2019-03-28T04:09:51.981Z,-904.10
2019-03-28T04:10:52.319Z,-900.50
2019-03-28T04:11:52.681Z,-903.31
2019-03-28T04:12:53.187Z,-904.87
2019-03-28T04:13:53.352Z,-903.17
2019-03-28T04:14:53.690Z,-903.78
2019-03-28T04:15:54.039Z,-907.87
2019-03-28T04:16:55.571Z,-904.61
2019-03-28T04:17:54.733Z,-903.87
2019-03-28T04:18:55.049Z,-906.22
2019-03-28T04:19:55.386Z,-907.97
2019-03-28T04:20:55.775Z,-903.41
2019-03-28T04:21:56.235Z,-902.81
2019-03-28T04:22:56.390Z,-905.46
2019-03-28T04:23:56.720Z,-900.99
2019-03-28T04:24:57.056Z,-899.16
2019-03-28T04:25:57.416Z,-903.05
2019-03-28T04:26:57.738Z,-903.18
2019-03-28T04:27:58.077Z,-901.73
2019-03-28T04:28:58.467Z,-904.90
2019-03-28T04:29:58.725Z,-900.59
2019-03-28T04:30:59.073Z,-908.89
2019-03-28T04:31:59.395Z,-902.98
2019-03-28T04:32:59.754Z,-905.96
2019-03-28T04:34:06.513Z,-901.15
2019-03-28T04:35:01.416Z,-902.99
2019-03-28T04:36:00.774Z,-902.20
2019-03-28T04:37:01.120Z,-904.61
2019-03-28T04:38:01.470Z,-902.40
2019-03-28T04:39:01.983Z,-902.62
2019-03-28T04:40:02.099Z,-902.58
2019-03-28T04:41:02.454Z,-901.03
2019-03-28T04:42:02.768Z,-902.00
2019-03-28T04:43:03.114Z,-901.99
2019-03-28T04:44:03.456Z,-901.46
2019-03-28T04:45:05.312Z,-900.96
2019-03-28T04:46:04.306Z,-903.93
2019-03-28T04:47:04.493Z,-901.17
2019-03-28T04:48:04.848Z,-902.40
2019-03-28T04:49:05.162Z,-898.50
2019-03-28T04:50:05.498Z,-903.50
2019-03-28T04:51:05.849Z,-902.14
2019-03-28T04:52:06.175Z,-901.65
2019-03-28T04:53:06.546Z,-903.62
2019-03-28T04:54:09.593Z,-899.89
2019-03-28T04:55:07.176Z,-898.50
2019-03-28T04:56:07.533Z,-904.91
2019-03-28T04:57:07.850Z,-900.99
2019-03-28T04:58:08.220Z,-894.36
2019-03-28T04:59:08.507Z,-899.50
2019-03-28T05:00:08.861Z,-893.78
2019-03-28T05:01:09.214Z,-897.49
2019-03-28T05:02:09.565Z,-898.57
2019-03-28T05:03:09.883Z,-899.09
2019-03-28T05:04:10.179Z,-900.42
2019-03-28T05:05:10.517Z,-894.20
2019-03-28T05:06:10.885Z,-896.04
2019-03-28T05:07:11.207Z,-895.15
2019-03-28T05:08:11.856Z,-904.13
2019-03-28T05:09:11.872Z,-901.79
2019-03-28T05:10:12.255Z,-899.19
2019-03-28T05:11:12.579Z,-895.51
2019-03-28T05:12:12.885Z,-896.74
2019-03-28T05:13:13.231Z,-894.57
2019-03-28T05:14:13.581Z,-895.14
2019-03-28T05:15:13.906Z,-896.99
2019-03-28T05:16:14.261Z,-898.47
2019-03-28T05:17:14.614Z,-894.11
2019-03-28T05:18:14.985Z,-900.53
2019-03-28T05:19:15.412Z,-894.88
2019-03-28T05:20:15.595Z,-894.63
2019-03-28T05:21:15.952Z,-892.51
2019-03-28T05:22:16.350Z,-892.01
2019-03-28T05:23:16.640Z,-896.39
2019-03-28T05:24:16.983Z,-892.95
2019-03-28T05:25:17.302Z,-886.72
2019-03-28T05:26:17.638Z,-891.50
2019-03-28T05:27:18.116Z,-889.44
2019-03-28T05:28:18.333Z,-891.11
2019-03-28T05:29:18.685Z,-888.72
2019-03-28T05:30:19.011Z,-880.86
2019-03-28T05:31:19.342Z,-892.43
2019-03-28T05:32:19.676Z,-887.84
2019-03-28T05:33:20.023Z,-891.21
2019-03-28T05:34:20.370Z,-891.11
2019-03-28T05:35:20.763Z,-893.27
2019-03-28T05:36:21.006Z,-887.76
2019-03-28T05:37:21.349Z,-885.37
2019-03-28T05:38:21.718Z,-888.89
2019-03-28T05:39:22.054Z,-894.53
2019-03-28T05:40:22.777Z,-884.69
2019-03-28T05:41:22.729Z,-886.88
2019-03-28T05:42:23.031Z,-882.28
2019-03-28T05:43:23.458Z,-886.75
2019-03-28T05:44:23.727Z,-882.90
2019-03-28T05:45:24.056Z,-888.46
2019-03-28T05:46:24.408Z,-889.07
2019-03-28T05:47:24.731Z,-888.58
2019-03-28T05:48:25.095Z,-892.76
2019-03-28T05:49:25.431Z,-888.03
2019-03-28T05:50:25.738Z,-887.14
2019-03-28T05:51:26.137Z,-884.47
2019-03-28T05:52:26.507Z,-885.94
2019-03-28T05:53:26.770Z,-884.44
2019-03-28T05:54:27.107Z,-882.38
2019-03-28T05:55:27.429Z,-886.10
2019-03-28T05:56:27.787Z,-883.22
2019-03-28T05:57:28.103Z,-886.00
2019-03-28T05:58:28.465Z,-890.54
2019-03-28T05:59:28.800Z,-875.79
2019-03-28T06:00:29.232Z,-881.27
2019-03-28T06:01:29.469Z,-887.68
2019-03-28T06:02:29.780Z,-879.69
2019-03-28T06:03:30.287Z,-878.45
2019-03-28T06:04:30.472Z,-887.57
2019-03-28T06:05:30.810Z,-886.79
2019-03-28T06:06:31.163Z,-879.46
2019-03-28T06:07:31.489Z,-878.55
2019-03-28T06:08:31.903Z,-890.72
2019-03-28T06:09:32.171Z,-884.62
2019-03-28T06:10:32.488Z,-883.43
2019-03-28T06:11:32.826Z,-882.02
2019-03-28T06:12:33.163Z,-882.08
2019-03-28T06:13:33.517Z,-883.38
2019-03-28T06:14:33.838Z,-873.53
2019-03-28T06:15:34.174Z,-881.07
2019-03-28T06:16:34.589Z,-884.73
2019-03-28T06:17:35.100Z,-882.54
2019-03-28T06:18:35.469Z,-876.14
2019-03-28T06:19:35.808Z,-879.74
2019-03-28T06:20:36.118Z,-881.31
2019-03-28T06:21:39.411Z,-885.62
2019-03-28T06:22:36.828Z,-883.39
2019-03-28T06:23:37.420Z,-882.17
2019-03-28T06:24:37.536Z,-894.12
2019-03-28T06:25:40.778Z,-880.73
2019-03-28T06:26:38.153Z,-881.17
2019-03-28T06:27:38.526Z,-875.72
2019-03-28T06:28:38.865Z,-882.40
2019-03-28T06:29:39.235Z,-880.80
2019-03-28T06:30:39.519Z,-876.28
2019-03-28T06:31:39.838Z,-875.36
2019-03-28T06:32:43.109Z,-881.19
2019-03-28T06:33:40.695Z,-876.14
2019-03-28T06:34:40.908Z,-872.17
2019-03-28T06:35:41.200Z,-873.68
2019-03-28T06:36:41.535Z,-879.86
2019-03-28T06:37:41.906Z,-879.98
2019-03-28T06:38:42.229Z,-881.38
2019-03-28T06:39:42.589Z,-884.87
2019-03-28T06:40:42.899Z,-885.35
2019-03-28T06:41:44.264Z,-878.39
2019-03-28T06:42:43.584Z,-881.38
2019-03-28T06:43:43.898Z,-873.28
2019-03-28T06:44:44.267Z,-881.90
2019-03-28T06:45:44.579Z,-880.24
2019-03-28T06:46:44.901Z,-876.86
2019-03-28T06:47:45.268Z,-875.42
2019-03-28T06:48:45.595Z,-884.41
2019-03-28T06:49:46.008Z,-882.32
2019-03-28T06:50:46.250Z,-877.73
2019-03-28T06:51:46.569Z,-874.97
2019-03-28T06:52:46.942Z,-879.79
2019-03-28T06:53:47.277Z,-883.89
2019-03-28T06:54:47.642Z,-881.69
2019-03-28T06:55:47.958Z,-880.50
2019-03-28T06:56:48.290Z,-882.13
2019-03-28T06:57:48.712Z,-880.02
2019-03-28T06:58:48.940Z,-885.35
2019-03-28T06:59:49.306Z,-882.81
2019-03-28T07:00:49.630Z,-878.81
2019-03-28T07:01:49.971Z,-880.93
2019-03-28T07:02:50.321Z,-877.87
2019-03-28T07:03:50.629Z,-879.90
2019-03-28T07:04:51.012Z,-882.16
2019-03-28T07:05:51.367Z,-878.76
2019-03-28T07:06:51.766Z,-879.49
2019-03-28T07:07:52.021Z,-880.70
2019-03-28T07:08:52.324Z,-876.24
2019-03-28T07:09:52.703Z,-883.23
2019-03-28T07:10:53.020Z,-881.37
2019-03-28T07:11:53.356Z,-885.42
2019-03-28T07:12:53.706Z,-881.07
2019-03-28T07:13:54.025Z,-879.72
2019-03-28T07:14:54.511Z,-876.56
2019-03-28T07:15:54.693Z,-878.31
2019-03-28T07:16:55.040Z,-877.51
2019-03-28T07:17:55.384Z,-881.11
2019-03-28T07:18:55.689Z,-884.73
2019-03-28T07:19:56.057Z,-882.62
2019-03-28T07:20:56.405Z,-885.23
2019-03-28T07:21:56.751Z,-887.63
2019-03-28T07:22:57.185Z,-892.19
2019-03-28T07:23:57.398Z,-883.37
2019-03-28T07:24:57.760Z,-880.87
2019-03-28T07:25:58.120Z,-875.22
2019-03-28T07:26:58.442Z,-874.86
2019-03-28T07:27:58.807Z,-874.38
2019-03-28T07:28:59.469Z,-875.72
2019-03-28T07:29:59.441Z,-871.65
2019-03-28T07:30:59.890Z,-872.25
2019-03-28T07:32:00.111Z,-873.10
2019-03-28T07:33:00.474Z,-872.05
2019-03-28T07:34:00.790Z,-874.57
2019-03-28T07:35:01.437Z,-933.95
2019-03-28T07:36:01.466Z,-935.08
2019-03-28T07:37:01.802Z,-932.17
2019-03-28T07:38:02.179Z,-927.30
2019-03-28T07:39:02.543Z,-925.98
2019-03-28T07:40:02.909Z,-928.89
2019-03-28T07:41:03.168Z,-933.19
2019-03-28T07:42:03.510Z,-932.23
2019-03-28T07:43:03.886Z,-928.31
2019-03-28T07:44:04.206Z,-932.54
2019-03-28T07:45:04.559Z,-935.51
2019-03-28T07:46:04.896Z,-936.55
2019-03-28T07:47:05.207Z,-933.57
2019-03-28T07:48:05.665Z,-931.29
2019-03-28T07:49:05.879Z,-936.74
2019-03-28T07:50:06.259Z,-938.98
2019-03-28T07:51:06.570Z,-934.82
2019-03-28T07:52:06.875Z,-937.98
2019-03-28T07:53:07.240Z,-935.42
2019-03-28T07:54:07.566Z,-934.79
2019-03-28T07:55:08.148Z,-934.13
2019-03-28T07:56:08.593Z,-925.41
2019-03-28T07:57:08.551Z,-928.89
2019-03-28T07:58:09.257Z,-931.69
2019-03-28T07:59:09.231Z,-929.66
2019-03-28T08:00:09.580Z,-928.86
2019-03-28T08:01:09.921Z,-936.21
2019-03-28T08:02:10.241Z,-932.94
2019-03-28T08:03:10.582Z,-935.66
2019-03-28T08:04:12.182Z,-936.85
2019-03-28T08:05:11.265Z,-943.01
2019-03-28T08:06:12.619Z,-935.00
2019-03-28T08:07:11.913Z,-935.48
2019-03-28T08:08:12.255Z,-942.89
2019-03-28T08:09:12.574Z,-939.58
2019-03-28T08:10:12.932Z,-937.98
2019-03-28T08:11:13.330Z,-933.15
2019-03-28T08:12:22.485Z,-945.44
2019-03-28T08:13:14.937Z,-939.09
2019-03-28T08:14:14.243Z,-939.85
2019-03-28T08:15:14.618Z,-938.61
2019-03-28T08:16:14.973Z,-930.17
2019-03-28T08:17:15.341Z,-928.01
2019-03-28T08:18:15.627Z,-929.92
2019-03-28T08:19:15.946Z,-928.85
2019-03-28T08:20:16.295Z,-925.61
2019-03-28T08:21:16.722Z,-931.58
2019-03-28T08:22:16.954Z,-924.55
2019-03-28T08:23:17.312Z,-930.95
2019-03-28T08:24:17.612Z,-930.29
2019-03-28T08:25:17.948Z,-930.26
2019-03-28T08:26:18.332Z,-932.87
2019-03-28T08:27:18.641Z,-936.62
2019-03-28T08:28:18.981Z,-934.00
2019-03-28T08:29:19.419Z,-934.69
2019-03-28T08:30:19.768Z,-939.27
2019-03-28T08:31:19.999Z,-931.04
2019-03-28T08:32:20.321Z,-936.44
2019-03-28T08:33:20.663Z,-938.79
2019-03-28T08:34:21.016Z,-935.53
2019-03-28T08:35:21.645Z,-939.31
2019-03-28T08:36:21.710Z,-933.47
2019-03-28T08:37:22.100Z,-940.35
2019-03-28T08:38:22.345Z,-932.39
2019-03-28T08:39:22.706Z,-935.53
2019-03-28T08:40:23.548Z,-946.42
2019-03-28T08:41:23.399Z,-942.53
2019-03-28T08:42:23.714Z,-940.34
2019-03-28T08:43:24.056Z,-944.20
2019-03-28T08:44:24.410Z,-938.90
2019-03-28T08:45:24.788Z,-938.07
2019-03-28T08:46:25.047Z,-933.51
2019-03-28T08:47:25.389Z,-954.67
2019-03-28T08:48:25.724Z,-946.12
2019-03-28T08:49:26.086Z,-950.71
2019-03-28T08:50:26.415Z,-958.40
2019-03-28T08:51:27.311Z,-942.80
2019-03-28T08:52:27.061Z,-941.72
2019-03-28T08:53:27.436Z,-942.68
2019-03-28T08:54:27.784Z,-939.05
2019-03-28T08:55:28.130Z,-937.31
2019-03-28T08:56:28.419Z,-944.00
2019-03-28T08:57:28.743Z,-949.62
2019-03-28T08:58:29.091Z,-945.97
2019-03-28T08:59:29.437Z,-946.35
2019-03-28T09:00:35.112Z,-945.47
2019-03-28T09:01:31.140Z,-945.99
2019-03-28T09:02:30.554Z,-942.83
2019-03-28T09:03:30.776Z,-945.43
2019-03-28T09:04:31.128Z,-939.54
2019-03-28T09:05:31.484Z,-942.68
2019-03-28T09:06:31.803Z,-941.81
2019-03-28T09:07:32.100Z,-946.18
2019-03-28T09:08:32.464Z,-934.99
2019-03-28T09:09:32.803Z,-942.19
2019-03-28T09:10:33.258Z,-948.10
2019-03-28T09:11:33.454Z,-937.10
2019-03-28T09:12:34.992Z,-948.10
2019-03-28T09:13:34.133Z,-937.16
2019-03-28T09:14:34.485Z,-937.10
2019-03-28T09:15:43.605Z,-930.95
2019-03-28T09:16:36.159Z,-939.10
2019-03-28T09:17:35.463Z,-935.76
2019-03-28T09:18:35.862Z,-944.59
2019-03-28T09:19:38.717Z,-953.98
2019-03-28T09:20:36.479Z,-945.03
2019-03-28T09:21:36.833Z,-943.09
2019-03-28T09:22:38.695Z,-941.78
2019-03-28T09:23:37.472Z,-937.92
2019-03-28T09:24:37.839Z,-936.63
2019-03-28T09:25:38.196Z,-936.55
2019-03-28T09:26:38.568Z,-939.20
2019-03-28T09:27:38.850Z,-940.90
2019-03-28T09:28:39.148Z,-935.01
2019-03-28T09:29:39.500Z,-946.33
2019-03-28T09:30:47.878Z,-937.45
2019-03-28T09:31:41.163Z,-937.10
2019-03-28T09:32:40.751Z,-937.85
2019-03-28T09:33:41.075Z,-938.32
2019-03-28T09:34:41.207Z,-943.38
2019-03-28T09:35:41.659Z,-944.22
2019-03-28T09:36:41.864Z,-932.93
2019-03-28T09:37:42.217Z,-935.41
2019-03-28T09:38:42.557Z,-933.82
2019-03-28T09:39:42.895Z,-946.41
2019-03-28T09:40:43.268Z,-952.41
2019-03-28T09:41:43.578Z,-945.41
2019-03-28T09:42:43.934Z,-946.78
2019-03-28T09:43:54.543Z,-942.27
2019-03-28T09:44:45.602Z,-950.20
2019-03-28T09:45:44.944Z,-942.28
2019-03-28T09:46:45.279Z,-948.49
2019-03-28T09:47:45.634Z,-943.17
2019-03-28T09:48:45.954Z,-950.26
2019-03-28T09:49:46.302Z,-948.81
2019-03-28T09:50:46.653Z,-943.16
2019-03-28T09:51:47.017Z,-944.62
2019-03-28T09:52:47.301Z,-950.30
2019-03-28T09:53:47.625Z,-948.34
2019-03-28T09:54:47.973Z,-941.67
2019-03-28T09:55:48.317Z,-944.90
2019-03-28T09:56:48.635Z,-948.72
2019-03-28T09:57:48.990Z,-947.76
2019-03-28T09:58:49.311Z,-945.03
2019-03-28T09:59:49.709Z,-945.67
2019-03-28T10:01:02.197Z,-948.71
2019-03-28T10:01:51.295Z,-949.77
2019-03-28T10:02:50.656Z,-946.87
2019-03-28T10:03:50.978Z,-941.96
2019-03-28T10:04:51.328Z,-937.12
2019-03-28T10:05:51.671Z,-939.59
2019-03-28T10:06:51.973Z,-934.97
2019-03-28T10:07:52.383Z,-937.59
2019-03-28T10:08:52.722Z,-931.18
2019-03-28T10:09:53.546Z,-943.56
2019-03-28T10:10:53.364Z,-948.65
2019-03-28T10:11:53.681Z,-949.23
2019-03-28T10:12:54.047Z,-943.73
2019-03-28T10:13:54.366Z,-954.49
2019-03-28T10:14:54.721Z,-953.27
2019-03-28T10:15:57.342Z,-950.25
2019-03-28T10:16:55.481Z,-947.28
2019-03-28T10:17:55.727Z,-945.61
2019-03-28T10:18:56.043Z,-944.29
2019-03-28T10:19:56.399Z,-952.02
2019-03-28T10:20:56.744Z,-951.50
2019-03-28T10:21:57.034Z,-950.22
2019-03-28T10:22:57.387Z,-947.79
2019-03-28T10:23:57.724Z,-935.77
2019-03-28T10:24:58.183Z,-940.30
2019-03-28T10:25:58.421Z,-936.91
2019-03-28T10:26:58.718Z,-944.70
2019-03-28T10:27:59.087Z,-940.93
2019-03-28T10:28:59.416Z,-938.62
2019-03-28T10:29:59.771Z,-943.20
2019-03-28T10:31:00.110Z,-947.72
2019-03-28T10:32:00.426Z,-947.09
2019-03-28T10:33:00.806Z,-942.41
2019-03-28T10:34:01.086Z,-948.46
2019-03-28T10:35:01.436Z,-947.84
2019-03-28T10:36:01.769Z,-945.72
2019-03-28T10:37:02.102Z,-945.12
2019-03-28T10:38:02.477Z,-942.15
2019-03-28T10:39:02.760Z,-944.46
2019-03-28T10:40:03.108Z,-943.79
2019-03-28T10:41:03.530Z,-936.69
2019-03-28T10:42:03.788Z,-935.05
2019-03-28T10:43:04.168Z,-942.25
2019-03-28T10:44:04.464Z,-943.09
2019-03-28T10:45:04.811Z,-945.13
2019-03-28T10:46:05.178Z,-939.14
2019-03-28T10:47:05.537Z,-940.37
2019-03-28T10:48:05.877Z,-941.22
2019-03-28T10:49:06.209Z,-945.55
2019-03-28T10:50:06.599Z,-941.13
2019-03-28T10:51:06.891Z,-948.44
2019-03-28T10:52:07.220Z,-943.32
2019-03-28T10:53:07.582Z,-938.21
2019-03-28T10:54:19.268Z,-940.63
2019-03-28T10:55:09.202Z,-942.07
2019-03-28T10:56:20.570Z,-949.44
2019-03-28T10:57:15.538Z,-948.82
2019-03-28T10:58:18.256Z,-950.14
2019-03-28T10:59:22.395Z,-947.92
2019-03-28T11:00:23.196Z,-947.81
2019-03-28T11:01:11.280Z,-950.12
2019-03-28T11:02:10.601Z,-954.19
2019-03-28T11:03:11.000Z,-949.51
2019-03-28T11:04:11.269Z,-945.65
2019-03-28T11:05:11.594Z,-947.06
2019-03-28T11:06:12.005Z,-948.42
2019-03-28T11:07:12.274Z,-940.77
2019-03-28T11:08:12.629Z,-940.74
2019-03-28T11:09:12.944Z,-941.50
2019-03-28T11:10:13.280Z,-942.46
2019-03-28T11:11:13.621Z,-940.77
2019-03-28T11:12:13.966Z,-933.12
2019-03-28T11:13:14.525Z,-940.27
2019-03-28T11:14:14.698Z,-950.01
2019-03-28T11:15:14.949Z,-951.50
2019-03-28T11:16:15.396Z,-948.65
2019-03-28T11:17:15.618Z,-942.10
2019-03-28T11:18:15.974Z,-936.65
2019-03-28T11:19:17.416Z,-934.71
2019-03-28T11:20:16.631Z,-937.79
2019-03-28T11:21:16.998Z,-936.40
2019-03-28T11:22:17.336Z,-935.39
2019-03-28T11:23:17.711Z,-942.25
2019-03-28T11:24:17.998Z,-944.65
2019-03-28T11:25:18.335Z,-937.85
2019-03-28T11:26:18.697Z,-937.46
2019-03-28T11:27:19.020Z,-932.87
2019-03-28T11:28:19.358Z,-935.78
2019-03-28T11:29:19.685Z,-939.85
2019-03-28T11:30:20.026Z,-939.95
2019-03-28T11:31:20.515Z,-944.25
2019-03-28T11:32:20.686Z,-945.63
2019-03-28T11:33:21.596Z,-945.34
2019-03-28T11:34:21.379Z,-943.03
2019-03-28T11:35:21.706Z,-939.18
2019-03-28T11:36:22.066Z,-942.86
2019-03-28T11:37:26.514Z,-939.57
2019-03-28T11:38:22.720Z,-934.28
2019-03-28T11:39:23.169Z,-935.35
2019-03-28T11:40:24.464Z,-942.50
2019-03-28T11:41:23.770Z,-941.04
2019-03-28T11:42:24.090Z,-938.62
2019-03-28T11:43:24.406Z,-940.37
2019-03-28T11:44:24.779Z,-936.56
2019-03-28T11:45:26.750Z,-941.57
2019-03-28T11:46:25.463Z,-938.58
2019-03-28T11:47:25.837Z,-940.84
2019-03-28T11:48:26.092Z,-935.02
2019-03-28T11:49:27.077Z,-939.86
2019-03-28T11:50:26.794Z,-940.28
2019-03-28T11:51:27.153Z,-936.71
2019-03-28T11:52:27.488Z,-935.84
2019-03-28T11:53:27.805Z,-932.48
2019-03-28T11:54:28.145Z,-936.92
2019-03-28T11:55:28.498Z,-932.19
2019-03-28T11:56:28.849Z,-932.46
2019-03-28T11:57:29.185Z,-936.73
2019-03-28T11:58:29.490Z,-944.50
2019-03-28T11:59:29.884Z,-941.99
2019-03-28T12:00:30.151Z,-943.86
2019-03-28T12:01:30.520Z,-946.56
2019-03-28T12:02:30.869Z,-944.43
2019-03-28T12:03:31.193Z,-941.35
2019-03-28T12:04:31.641Z,-937.41
2019-03-28T12:05:31.844Z,-934.01
2019-03-28T12:06:32.220Z,-948.01
2019-03-28T12:07:32.568Z,-945.47
2019-03-28T12:08:32.874Z,-947.54
2019-03-28T12:09:33.227Z,-939.48